Aviation Digital Data Service (ADDS)

Output produced by METARs form (0013 UTC 26 June 2019)
found at http://aviationweather.gov/metar/data/
 
KDFW 252327Z 2600/2706 17012KT P6SM SCT250 
     FM261700 18012KT P6SM SCT040 BKN100